sensor_id;sensor_type;location;lat;lon;timestamp;temperature;humidity
20315;DHT22;10315;50.958;13.080;2023-06-01T00:08:45;12.20;99.90
20315;DHT22;10315;50.958;13.080;2023-06-01T00:18:48;12.10;99.90
20315;DHT22;10315;50.958;13.080;2023-06-01T00:28:51;11.90;99.90
20315;DHT22;10315;50.958;13.080;2023-06-01T00:38:54;11.60;99.90
20315;DHT22;10315;50.958;13.080;2023-06-01T00:49:02;11.50;99.90
20315;DHT22;10315;50.958;13.080;2023-06-01T00:59:05;11.60;99.90
20315;DHT22;10315;50.958;13.080;2023-06-01T01:09:17;11.40;99.90
20315;DHT22;10315;50.958;13.080;2023-06-01T01:19:35;11.30;99.90
20315;DHT22;10315;50.958;13.080;2023-06-01T01:29:44;10.90;99.90
20315;DHT22;10315;50.958;13.080;2023-06-01T01:39:47;11.00;99.90
20315;DHT22;10315;50.958;13.080;2023-06-01T01:49:55;10.90;99.90
20315;DHT22;10315;50.958;13.080;2023-06-01T01:59:58;10.70;99.90
20315;DHT22;10315;50.958;13.080;2023-06-01T02:10:02;10.40;99.90
20315;DHT22;10315;50.958;13.080;2023-06-01T02:20:05;10.30;99.90
20315;DHT22;10315;50.958;13.080;2023-06-01T02:30:09;10.20;99.90
20315;DHT22;10315;50.958;13.080;2023-06-01T02:40:11;10.00;99.90
20315;DHT22;10315;50.958;13.080;2023-06-01T02:50:14;9.70;99.90
20315;DHT22;10315;50.958;13.080;2023-06-01T03:00:16;9.70;99.90
20315;DHT22;10315;50.958;13.080;2023-06-01T03:10:19;9.50;99.90
20315;DHT22;10315;50.958;13.080;2023-06-01T03:20:20;9.40;99.90
20315;DHT22;10315;50.958;13.080;2023-06-01T03:30:24;9.10;99.90
20315;DHT22;10315;50.958;13.080;2023-06-01T03:40:26;9.20;99.90
20315;DHT22;10315;50.958;13.080;2023-06-01T03:50:29;9.20;99.90
20315;DHT22;10315;50.958;13.080;2023-06-01T04:00:30;9.20;99.90
20315;DHT22;10315;50.958;13.080;2023-06-01T04:10:33;9.20;99.90
20315;DHT22;10315;50.958;13.080;2023-06-01T04:20:35;9.30;99.90
20315;DHT22;10315;50.958;13.080;2023-06-01T04:30:38;9.50;99.90
20315;DHT22;10315;50.958;13.080;2023-06-01T04:40:39;9.60;99.90
20315;DHT22;10315;50.958;13.080;2023-06-01T04:50:43;9.80;99.90
20315;DHT22;10315;50.958;13.080;2023-06-01T05:00:45;10.10;99.90
20315;DHT22;10315;50.958;13.080;2023-06-01T05:10:48;10.50;99.90
20315;DHT22;10315;50.958;13.080;2023-06-01T05:20:50;10.90;99.90
20315;DHT22;10315;50.958;13.080;2023-06-01T05:30:53;11.70;99.90
20315;DHT22;10315;50.958;13.080;2023-06-01T05:40:54;12.40;99.90
20315;DHT22;10315;50.958;13.080;2023-06-01T05:50:57;13.20;99.90
20315;DHT22;10315;50.958;13.080;2023-06-01T06:00:59;14.30;99.90
20315;DHT22;10315;50.958;13.080;2023-06-01T06:11:02;14.80;99.90
20315;DHT22;10315;50.958;13.080;2023-06-01T06:21:04;15.90;99.90
20315;DHT22;10315;50.958;13.080;2023-06-01T06:31:07;18.10;99.90
20315;DHT22;10315;50.958;13.080;2023-06-01T06:41:10;25.20;99.90
20315;DHT22;10315;50.958;13.080;2023-06-01T06:51:12;28.40;90.50
20315;DHT22;10315;50.958;13.080;2023-06-01T07:01:14;30.90;74.40
20315;DHT22;10315;50.958;13.080;2023-06-01T07:11:18;31.70;68.90
20315;DHT22;10315;50.958;13.080;2023-06-01T07:21:19;33.70;64.50
20315;DHT22;10315;50.958;13.080;2023-06-01T07:31:23;31.80;64.10
20315;DHT22;10315;50.958;13.080;2023-06-01T07:41:24;34.30;59.00
20315;DHT22;10315;50.958;13.080;2023-06-01T07:51:27;38.40;50.00
20315;DHT22;10315;50.958;13.080;2023-06-01T08:01:29;33.70;53.70
20315;DHT22;10315;50.958;13.080;2023-06-01T08:11:32;30.70;59.00
20315;DHT22;10315;50.958;13.080;2023-06-01T08:21:34;34.40;55.40
20315;DHT22;10315;50.958;13.080;2023-06-01T08:31:37;38.70;49.40
20315;DHT22;10315;50.958;13.080;2023-06-01T08:41:43;43.00;46.70
20315;DHT22;10315;50.958;13.080;2023-06-01T08:51:48;43.30;43.80
20315;DHT22;10315;50.958;13.080;2023-06-01T09:01:50;41.90;44.30
20315;DHT22;10315;50.958;13.080;2023-06-01T09:12:20;40.60;44.80
20315;DHT22;10315;50.958;13.080;2023-06-01T09:22:23;38.70;46.80
20315;DHT22;10315;50.958;13.080;2023-06-01T09:32:26;41.50;43.60
20315;DHT22;10315;50.958;13.080;2023-06-01T09:42:32;39.90;45.50
20315;DHT22;10315;50.958;13.080;2023-06-01T09:52:35;40.40;43.60
20315;DHT22;10315;50.958;13.080;2023-06-01T10:02:39;35.00;48.90
20315;DHT22;10315;50.958;13.080;2023-06-01T10:12:47;34.40;51.40
20315;DHT22;10315;50.958;13.080;2023-06-01T10:22:48;33.40;52.00
20315;DHT22;10315;50.958;13.080;2023-06-01T10:32:55;33.60;51.60
20315;DHT22;10315;50.958;13.080;2023-06-01T10:43:04;31.90;56.10
20315;DHT22;10315;50.958;13.080;2023-06-01T10:53:27;30.50;56.40
20315;DHT22;10315;50.958;13.080;2023-06-01T11:03:48;30.40;56.70
20315;DHT22;10315;50.958;13.080;2023-06-01T11:14:12;29.00;58.20
20315;DHT22;10315;50.958;13.080;2023-06-01T11:24:17;28.20;60.80
20315;DHT22;10315;50.958;13.080;2023-06-01T11:34:31;28.30;62.00
20315;DHT22;10315;50.958;13.080;2023-06-01T11:44:34;27.00;64.00
20315;DHT22;10315;50.958;13.080;2023-06-01T11:54:37;26.90;66.80
20315;DHT22;10315;50.958;13.080;2023-06-01T12:04:41;27.50;62.50
20315;DHT22;10315;50.958;13.080;2023-06-01T12:14:45;27.90;61.10
20315;DHT22;10315;50.958;13.080;2023-06-01T12:24:46;28.10;66.10
20315;DHT22;10315;50.958;13.080;2023-06-01T12:35:05;27.40;63.80
20315;DHT22;10315;50.958;13.080;2023-06-01T12:45:07;27.20;63.90
20315;DHT22;10315;50.958;13.080;2023-06-01T12:55:10;26.20;63.70
20315;DHT22;10315;50.958;13.080;2023-06-01T13:05:16;25.70;65.10
20315;DHT22;10315;50.958;13.080;2023-06-01T13:15:19;25.80;65.40
20315;DHT22;10315;50.958;13.080;2023-06-01T13:25:21;26.20;58.90
20315;DHT22;10315;50.958;13.080;2023-06-01T13:35:27;25.80;58.80
20315;DHT22;10315;50.958;13.080;2023-06-01T13:45:29;25.20;58.70
20315;DHT22;10315;50.958;13.080;2023-06-01T13:55:32;24.80;59.00
20315;DHT22;10315;50.958;13.080;2023-06-01T14:05:33;24.50;59.30
20315;DHT22;10315;50.958;13.080;2023-06-01T14:15:36;24.50;64.80
20315;DHT22;10315;50.958;13.080;2023-06-01T14:25:38;24.70;62.20
20315;DHT22;10315;50.958;13.080;2023-06-01T14:35:41;24.40;57.60
20315;DHT22;10315;50.958;13.080;2023-06-01T14:45:43;24.40;57.60
20315;DHT22;10315;50.958;13.080;2023-06-01T14:55:46;24.30;59.10
20315;DHT22;10315;50.958;13.080;2023-06-01T15:05:47;24.30;59.60
20315;DHT22;10315;50.958;13.080;2023-06-01T15:15:51;24.50;60.90
20315;DHT22;10315;50.958;13.080;2023-06-01T15:25:53;24.10;63.50
20315;DHT22;10315;50.958;13.080;2023-06-01T15:35:55;23.90;65.80
20315;DHT22;10315;50.958;13.080;2023-06-01T15:45:57;23.60;64.10
20315;DHT22;10315;50.958;13.080;2023-06-01T15:56:00;23.30;63.20
20315;DHT22;10315;50.958;13.080;2023-06-01T16:06:01;23.00;59.20
20315;DHT22;10315;50.958;13.080;2023-06-01T16:16:05;23.00;62.40
20315;DHT22;10315;50.958;13.080;2023-06-01T16:26:06;22.80;62.40
20315;DHT22;10315;50.958;13.080;2023-06-01T16:36:10;22.40;60.60
20315;DHT22;10315;50.958;13.080;2023-06-01T16:46:11;22.30;63.80
20315;DHT22;10315;50.958;13.080;2023-06-01T16:56:14;21.80;65.90
20315;DHT22;10315;50.958;13.080;2023-06-01T17:06:16;21.60;70.20
20315;DHT22;10315;50.958;13.080;2023-06-01T17:16:19;21.40;71.20
20315;DHT22;10315;50.958;13.080;2023-06-01T17:26:20;21.20;77.20
20315;DHT22;10315;50.958;13.080;2023-06-01T17:36:23;21.00;78.20
20315;DHT22;10315;50.958;13.080;2023-06-01T17:46:25;20.60;79.20
20315;DHT22;10315;50.958;13.080;2023-06-01T17:56:28;20.30;82.90
20315;DHT22;10315;50.958;13.080;2023-06-01T18:06:30;19.80;84.40
20315;DHT22;10315;50.958;13.080;2023-06-01T18:16:33;19.50;88.10
20315;DHT22;10315;50.958;13.080;2023-06-01T18:26:34;19.00;91.50
20315;DHT22;10315;50.958;13.080;2023-06-01T18:36:37;18.60;93.30
20315;DHT22;10315;50.958;13.080;2023-06-01T18:46:39;18.10;95.90
20315;DHT22;10315;50.958;13.080;2023-06-01T18:56:42;17.50;99.90
20315;DHT22;10315;50.958;13.080;2023-06-01T19:06:44;16.90;99.90
20315;DHT22;10315;50.958;13.080;2023-06-01T19:16:48;16.40;99.90
20315;DHT22;10315;50.958;13.080;2023-06-01T19:26:49;16.00;99.90
20315;DHT22;10315;50.958;13.080;2023-06-01T19:36:55;15.50;99.90
20315;DHT22;10315;50.958;13.080;2023-06-01T19:46:59;15.00;99.90
20315;DHT22;10315;50.958;13.080;2023-06-01T19:57:03;14.60;99.90
20315;DHT22;10315;50.958;13.080;2023-06-01T20:07:05;14.40;99.90
20315;DHT22;10315;50.958;13.080;2023-06-01T20:17:08;14.20;99.90
20315;DHT22;10315;50.958;13.080;2023-06-01T20:27:10;13.90;99.90
20315;DHT22;10315;50.958;13.080;2023-06-01T20:37:14;13.60;99.90
20315;DHT22;10315;50.958;13.080;2023-06-01T20:47:17;13.40;99.90
20315;DHT22;10315;50.958;13.080;2023-06-01T20:57:23;13.10;99.90
20315;DHT22;10315;50.958;13.080;2023-06-01T21:07:25;12.80;99.90
20315;DHT22;10315;50.958;13.080;2023-06-01T21:17:28;12.60;99.90
20315;DHT22;10315;50.958;13.080;2023-06-01T21:27:30;12.40;99.90
20315;DHT22;10315;50.958;13.080;2023-06-01T21:37:33;12.20;99.90
20315;DHT22;10315;50.958;13.080;2023-06-01T21:47:35;11.90;99.90
20315;DHT22;10315;50.958;13.080;2023-06-01T21:57:39;11.80;99.90
20315;DHT22;10315;50.958;13.080;2023-06-01T22:07:41;11.70;99.90
20315;DHT22;10315;50.958;13.080;2023-06-01T22:17:44;11.50;99.90
20315;DHT22;10315;50.958;13.080;2023-06-01T22:27:46;11.30;99.90
20315;DHT22;10315;50.958;13.080;2023-06-01T22:37:49;11.10;99.90
20315;DHT22;10315;50.958;13.080;2023-06-01T22:47:50;10.70;99.90
20315;DHT22;10315;50.958;13.080;2023-06-01T22:57:53;10.50;99.90
20315;DHT22;10315;50.958;13.080;2023-06-01T23:07:55;10.30;99.90
20315;DHT22;10315;50.958;13.080;2023-06-01T23:17:58;10.00;99.90
20315;DHT22;10315;50.958;13.080;2023-06-01T23:27:59;9.80;99.90
20315;DHT22;10315;50.958;13.080;2023-06-01T23:38:02;9.60;99.90
20315;DHT22;10315;50.958;13.080;2023-06-01T23:48:05;9.30;99.90
20315;DHT22;10315;50.958;13.080;2023-06-01T23:58:10;9.00;99.90
